sensor_id;sensor_type;location;lat;lon;timestamp;P1;durP1;ratioP1;P2;durP2;ratioP2
35693;SDS011;21812;55.536;37.664;2023-04-03T00:02:16;7.05;;;4.45;;
35693;SDS011;21812;55.536;37.664;2023-04-03T00:04:42;6.05;;;4.70;;
35693;SDS011;21812;55.536;37.664;2023-04-03T00:07:08;6.70;;;4.38;;
35693;SDS011;21812;55.536;37.664;2023-04-03T00:09:33;8.10;;;4.72;;
35693;SDS011;21812;55.536;37.664;2023-04-03T00:11:59;6.80;;;4.50;;
35693;SDS011;21812;55.536;37.664;2023-04-03T00:14:25;10.30;;;5.13;;
35693;SDS011;21812;55.536;37.664;2023-04-03T00:16:52;6.30;;;4.57;;
35693;SDS011;21812;55.536;37.664;2023-04-03T00:19:18;8.05;;;4.65;;
35693;SDS011;21812;55.536;37.664;2023-04-03T00:21:44;9.38;;;5.05;;
35693;SDS011;21812;55.536;37.664;2023-04-03T00:24:09;9.52;;;5.50;;
35693;SDS011;21812;55.536;37.664;2023-04-03T00:26:35;8.23;;;4.93;;
35693;SDS011;21812;55.536;37.664;2023-04-03T00:29:01;9.15;;;5.72;;
35693;SDS011;21812;55.536;37.664;2023-04-03T00:31:26;9.77;;;5.28;;
35693;SDS011;21812;55.536;37.664;2023-04-03T00:33:52;8.30;;;5.63;;
35693;SDS011;21812;55.536;37.664;2023-04-03T00:36:18;8.43;;;5.18;;
35693;SDS011;21812;55.536;37.664;2023-04-03T00:38:43;8.75;;;5.15;;
35693;SDS011;21812;55.536;37.664;2023-04-03T00:41:09;7.57;;;5.38;;
35693;SDS011;21812;55.536;37.664;2023-04-03T00:43:35;11.07;;;5.97;;
35693;SDS011;21812;55.536;37.664;2023-04-03T00:46:01;10.38;;;5.78;;
35693;SDS011;21812;55.536;37.664;2023-04-03T00:51:06;13.48;;;6.00;;
35693;SDS011;21812;55.536;37.664;2023-04-03T00:53:35;8.50;;;5.85;;
35693;SDS011;21812;55.536;37.664;2023-04-03T00:56:05;9.23;;;6.15;;
35693;SDS011;21812;55.536;37.664;2023-04-03T00:58:36;11.82;;;6.45;;
35693;SDS011;21812;55.536;37.664;2023-04-03T01:01:06;10.90;;;6.65;;
35693;SDS011;21812;55.536;37.664;2023-04-03T01:03:35;9.57;;;5.93;;
35693;SDS011;21812;55.536;37.664;2023-04-03T01:06:03;12.52;;;7.25;;
35693;SDS011;21812;55.536;37.664;2023-04-03T01:08:29;10.45;;;6.32;;
35693;SDS011;21812;55.536;37.664;2023-04-03T01:10:56;14.52;;;6.50;;
35693;SDS011;21812;55.536;37.664;2023-04-03T01:13:25;15.45;;;9.02;;
35693;SDS011;21812;55.536;37.664;2023-04-03T01:15:56;16.02;;;9.95;;
35693;SDS011;21812;55.536;37.664;2023-04-03T01:18:22;15.38;;;8.00;;
35693;SDS011;21812;55.536;37.664;2023-04-03T01:20:55;11.48;;;7.60;;
35693;SDS011;21812;55.536;37.664;2023-04-03T01:23:43;9.85;;;7.13;;
35693;SDS011;21812;55.536;37.664;2023-04-03T01:26:12;9.02;;;6.20;;
35693;SDS011;21812;55.536;37.664;2023-04-03T01:28:39;28.33;;;8.15;;
35693;SDS011;21812;55.536;37.664;2023-04-03T01:33:46;14.13;;;6.75;;
35693;SDS011;21812;55.536;37.664;2023-04-03T01:36:20;13.45;;;6.28;;
35693;SDS011;21812;55.536;37.664;2023-04-03T01:38:49;13.18;;;7.15;;
35693;SDS011;21812;55.536;37.664;2023-04-03T01:41:16;9.52;;;6.28;;
35693;SDS011;21812;55.536;37.664;2023-04-03T01:43:43;10.70;;;5.78;;
35693;SDS011;21812;55.536;37.664;2023-04-03T01:46:11;10.95;;;5.95;;
35693;SDS011;21812;55.536;37.664;2023-04-03T01:48:37;8.05;;;5.50;;
35693;SDS011;21812;55.536;37.664;2023-04-03T01:51:03;9.32;;;5.63;;
35693;SDS011;21812;55.536;37.664;2023-04-03T01:53:29;11.27;;;6.85;;
35693;SDS011;21812;55.536;37.664;2023-04-03T01:55:55;16.95;;;7.35;;
35693;SDS011;21812;55.536;37.664;2023-04-03T01:58:20;8.32;;;6.18;;
35693;SDS011;21812;55.536;37.664;2023-04-03T02:00:48;12.27;;;5.95;;
35693;SDS011;21812;55.536;37.664;2023-04-03T02:03:13;11.15;;;6.28;;
35693;SDS011;21812;55.536;37.664;2023-04-03T02:05:40;12.85;;;7.40;;
35693;SDS011;21812;55.536;37.664;2023-04-03T02:08:06;25.70;;;6.90;;
35693;SDS011;21812;55.536;37.664;2023-04-03T02:10:31;13.85;;;6.95;;
35693;SDS011;21812;55.536;37.664;2023-04-03T02:12:57;13.85;;;6.38;;
35693;SDS011;21812;55.536;37.664;2023-04-03T02:15:24;20.55;;;6.63;;
35693;SDS011;21812;55.536;37.664;2023-04-03T02:17:50;12.00;;;6.40;;
35693;SDS011;21812;55.536;37.664;2023-04-03T02:20:17;13.77;;;6.57;;
35693;SDS011;21812;55.536;37.664;2023-04-03T02:22:43;11.07;;;6.95;;
35693;SDS011;21812;55.536;37.664;2023-04-03T02:25:09;9.80;;;6.25;;
35693;SDS011;21812;55.536;37.664;2023-04-03T02:27:35;10.00;;;6.80;;
35693;SDS011;21812;55.536;37.664;2023-04-03T02:30:01;10.50;;;6.82;;
35693;SDS011;21812;55.536;37.664;2023-04-03T02:32:29;15.70;;;7.40;;
35693;SDS011;21812;55.536;37.664;2023-04-03T02:34:55;15.80;;;8.50;;
35693;SDS011;21812;55.536;37.664;2023-04-03T02:37:21;17.27;;;7.45;;
35693;SDS011;21812;55.536;37.664;2023-04-03T02:39:48;16.30;;;7.72;;
35693;SDS011;21812;55.536;37.664;2023-04-03T02:42:14;21.23;;;7.60;;
35693;SDS011;21812;55.536;37.664;2023-04-03T02:44:40;14.80;;;7.43;;
35693;SDS011;21812;55.536;37.664;2023-04-03T02:47:06;14.60;;;7.68;;
35693;SDS011;21812;55.536;37.664;2023-04-03T02:49:32;19.85;;;7.63;;
35693;SDS011;21812;55.536;37.664;2023-04-03T02:51:57;19.38;;;7.82;;
35693;SDS011;21812;55.536;37.664;2023-04-03T02:54:23;17.58;;;7.03;;
35693;SDS011;21812;55.536;37.664;2023-04-03T02:56:54;20.40;;;8.15;;
35693;SDS011;21812;55.536;37.664;2023-04-03T02:59:20;18.35;;;7.30;;
35693;SDS011;21812;55.536;37.664;2023-04-03T03:01:46;19.42;;;7.40;;
35693;SDS011;21812;55.536;37.664;2023-04-03T03:04:12;18.95;;;7.68;;
35693;SDS011;21812;55.536;37.664;2023-04-03T03:06:38;19.65;;;7.05;;
35693;SDS011;21812;55.536;37.664;2023-04-03T03:09:04;20.52;;;8.18;;
35693;SDS011;21812;55.536;37.664;2023-04-03T03:11:30;15.15;;;7.28;;
35693;SDS011;21812;55.536;37.664;2023-04-03T03:13:57;14.40;;;7.57;;
35693;SDS011;21812;55.536;37.664;2023-04-03T03:16:24;14.95;;;7.65;;
35693;SDS011;21812;55.536;37.664;2023-04-03T03:18:50;17.85;;;8.75;;
35693;SDS011;21812;55.536;37.664;2023-04-03T03:21:16;17.55;;;7.45;;
35693;SDS011;21812;55.536;37.664;2023-04-03T03:23:41;15.93;;;7.70;;
35693;SDS011;21812;55.536;37.664;2023-04-03T03:26:08;21.15;;;8.07;;
35693;SDS011;21812;55.536;37.664;2023-04-03T03:28:35;17.27;;;8.18;;
35693;SDS011;21812;55.536;37.664;2023-04-03T03:31:02;23.63;;;8.40;;
35693;SDS011;21812;55.536;37.664;2023-04-03T03:33:30;14.23;;;7.05;;
35693;SDS011;21812;55.536;37.664;2023-04-03T03:35:55;13.90;;;7.40;;
35693;SDS011;21812;55.536;37.664;2023-04-03T03:38:21;15.60;;;7.65;;
35693;SDS011;21812;55.536;37.664;2023-04-03T03:40:48;20.38;;;8.07;;
35693;SDS011;21812;55.536;37.664;2023-04-03T03:43:16;31.15;;;10.18;;
35693;SDS011;21812;55.536;37.664;2023-04-03T03:45:43;14.32;;;8.10;;
35693;SDS011;21812;55.536;37.664;2023-04-03T03:48:10;11.50;;;7.90;;
35693;SDS011;21812;55.536;37.664;2023-04-03T03:50:36;21.77;;;8.55;;
35693;SDS011;21812;55.536;37.664;2023-04-03T03:53:02;22.90;;;9.48;;
35693;SDS011;21812;55.536;37.664;2023-04-03T03:55:28;22.90;;;8.80;;
35693;SDS011;21812;55.536;37.664;2023-04-03T03:57:56;15.73;;;8.50;;
35693;SDS011;21812;55.536;37.664;2023-04-03T04:00:22;15.48;;;8.30;;
35693;SDS011;21812;55.536;37.664;2023-04-03T04:02:53;22.08;;;8.85;;
35693;SDS011;21812;55.536;37.664;2023-04-03T04:05:21;17.75;;;8.40;;
35693;SDS011;21812;55.536;37.664;2023-04-03T04:07:47;15.68;;;9.23;;
35693;SDS011;21812;55.536;37.664;2023-04-03T04:10:13;21.00;;;9.05;;
35693;SDS011;21812;55.536;37.664;2023-04-03T04:12:40;19.55;;;9.25;;
35693;SDS011;21812;55.536;37.664;2023-04-03T04:15:06;13.70;;;8.45;;
35693;SDS011;21812;55.536;37.664;2023-04-03T04:17:32;16.92;;;9.70;;
35693;SDS011;21812;55.536;37.664;2023-04-03T04:20:01;20.52;;;9.70;;
35693;SDS011;21812;55.536;37.664;2023-04-03T04:22:28;16.75;;;9.20;;
35693;SDS011;21812;55.536;37.664;2023-04-03T04:24:54;30.42;;;10.07;;
35693;SDS011;21812;55.536;37.664;2023-04-03T04:27:20;20.98;;;11.32;;
35693;SDS011;21812;55.536;37.664;2023-04-03T04:29:46;26.27;;;11.10;;
35693;SDS011;21812;55.536;37.664;2023-04-03T04:32:12;20.08;;;9.27;;
35693;SDS011;21812;55.536;37.664;2023-04-03T04:34:38;22.88;;;10.70;;
35693;SDS011;21812;55.536;37.664;2023-04-03T04:37:04;22.45;;;11.82;;
35693;SDS011;21812;55.536;37.664;2023-04-03T04:39:29;21.05;;;10.70;;
35693;SDS011;21812;55.536;37.664;2023-04-03T04:41:57;21.08;;;10.52;;
35693;SDS011;21812;55.536;37.664;2023-04-03T04:44:25;23.10;;;10.52;;
35693;SDS011;21812;55.536;37.664;2023-04-03T04:46:51;26.95;;;13.18;;
35693;SDS011;21812;55.536;37.664;2023-04-03T04:49:16;24.95;;;13.65;;
35693;SDS011;21812;55.536;37.664;2023-04-03T04:51:42;24.40;;;12.70;;
35693;SDS011;21812;55.536;37.664;2023-04-03T04:54:09;20.30;;;12.57;;
35693;SDS011;21812;55.536;37.664;2023-04-03T04:56:36;23.80;;;12.63;;
35693;SDS011;21812;55.536;37.664;2023-04-03T04:59:01;26.58;;;12.80;;
35693;SDS011;21812;55.536;37.664;2023-04-03T05:01:27;25.05;;;13.18;;
35693;SDS011;21812;55.536;37.664;2023-04-03T05:04:01;29.02;;;11.95;;
35693;SDS011;21812;55.536;37.664;2023-04-03T05:06:27;29.40;;;12.05;;
35693;SDS011;21812;55.536;37.664;2023-04-03T05:08:54;29.60;;;11.88;;
35693;SDS011;21812;55.536;37.664;2023-04-03T05:11:21;28.83;;;11.80;;
35693;SDS011;21812;55.536;37.664;2023-04-03T05:13:49;26.42;;;13.75;;
35693;SDS011;21812;55.536;37.664;2023-04-03T05:16:16;23.58;;;11.70;;
35693;SDS011;21812;55.536;37.664;2023-04-03T05:18:42;19.73;;;10.68;;
35693;SDS011;21812;55.536;37.664;2023-04-03T05:21:15;19.10;;;11.25;;
35693;SDS011;21812;55.536;37.664;2023-04-03T05:23:41;24.23;;;12.00;;
35693;SDS011;21812;55.536;37.664;2023-04-03T05:26:07;18.63;;;11.25;;
35693;SDS011;21812;55.536;37.664;2023-04-03T05:28:34;21.92;;;11.40;;
35693;SDS011;21812;55.536;37.664;2023-04-03T05:31:01;24.38;;;12.25;;
35693;SDS011;21812;55.536;37.664;2023-04-03T05:33:33;25.48;;;10.95;;
35693;SDS011;21812;55.536;37.664;2023-04-03T05:36:06;18.77;;;10.05;;
35693;SDS011;21812;55.536;37.664;2023-04-03T05:38:35;14.57;;;9.30;;
35693;SDS011;21812;55.536;37.664;2023-04-03T05:41:01;19.50;;;9.93;;
35693;SDS011;21812;55.536;37.664;2023-04-03T05:43:27;15.90;;;9.50;;
35693;SDS011;21812;55.536;37.664;2023-04-03T05:45:53;14.45;;;9.13;;
35693;SDS011;21812;55.536;37.664;2023-04-03T05:48:21;15.63;;;8.80;;
35693;SDS011;21812;55.536;37.664;2023-04-03T05:50:47;22.42;;;10.38;;
35693;SDS011;21812;55.536;37.664;2023-04-03T05:53:21;20.75;;;8.75;;
35693;SDS011;21812;55.536;37.664;2023-04-03T05:55:50;13.40;;;9.15;;
35693;SDS011;21812;55.536;37.664;2023-04-03T05:58:16;14.30;;;9.18;;
35693;SDS011;21812;55.536;37.664;2023-04-03T06:00:44;19.02;;;9.38;;
35693;SDS011;21812;55.536;37.664;2023-04-03T06:03:11;11.23;;;9.13;;
35693;SDS011;21812;55.536;37.664;2023-04-03T06:05:37;17.55;;;9.65;;
35693;SDS011;21812;55.536;37.664;2023-04-03T06:08:02;14.80;;;8.80;;
35693;SDS011;21812;55.536;37.664;2023-04-03T06:10:29;12.68;;;8.52;;
35693;SDS011;21812;55.536;37.664;2023-04-03T06:12:56;20.27;;;8.88;;
35693;SDS011;21812;55.536;37.664;2023-04-03T06:15:22;12.52;;;8.40;;
35693;SDS011;21812;55.536;37.664;2023-04-03T06:17:48;13.25;;;8.82;;
35693;SDS011;21812;55.536;37.664;2023-04-03T06:20:16;12.18;;;7.50;;
35693;SDS011;21812;55.536;37.664;2023-04-03T06:22:42;11.23;;;7.22;;
35693;SDS011;21812;55.536;37.664;2023-04-03T06:25:07;17.00;;;9.43;;
35693;SDS011;21812;55.536;37.664;2023-04-03T06:27:35;16.30;;;8.95;;
35693;SDS011;21812;55.536;37.664;2023-04-03T06:30:00;16.08;;;7.95;;
35693;SDS011;21812;55.536;37.664;2023-04-03T06:32:27;16.88;;;8.80;;
35693;SDS011;21812;55.536;37.664;2023-04-03T06:34:53;15.30;;;9.02;;
35693;SDS011;21812;55.536;37.664;2023-04-03T06:37:19;16.00;;;9.35;;
35693;SDS011;21812;55.536;37.664;2023-04-03T06:39:46;24.02;;;10.02;;
35693;SDS011;21812;55.536;37.664;2023-04-03T06:42:12;18.55;;;8.18;;
35693;SDS011;21812;55.536;37.664;2023-04-03T06:44:47;13.93;;;7.78;;
35693;SDS011;21812;55.536;37.664;2023-04-03T06:47:13;24.30;;;10.75;;
35693;SDS011;21812;55.536;37.664;2023-04-03T06:49:40;20.67;;;9.82;;
35693;SDS011;21812;55.536;37.664;2023-04-03T06:52:07;15.30;;;8.90;;
35693;SDS011;21812;55.536;37.664;2023-04-03T06:54:33;23.25;;;10.43;;
35693;SDS011;21812;55.536;37.664;2023-04-03T06:56:58;17.08;;;10.60;;
35693;SDS011;21812;55.536;37.664;2023-04-03T06:59:25;27.38;;;11.13;;
35693;SDS011;21812;55.536;37.664;2023-04-03T07:01:51;20.17;;;10.77;;
35693;SDS011;21812;55.536;37.664;2023-04-03T07:04:16;18.42;;;10.07;;
35693;SDS011;21812;55.536;37.664;2023-04-03T07:06:43;17.80;;;9.23;;
35693;SDS011;21812;55.536;37.664;2023-04-03T07:09:09;19.02;;;11.15;;
35693;SDS011;21812;55.536;37.664;2023-04-03T07:11:36;18.00;;;11.90;;
35693;SDS011;21812;55.536;37.664;2023-04-03T07:14:02;19.67;;;11.23;;
35693;SDS011;21812;55.536;37.664;2023-04-03T07:16:28;25.77;;;12.60;;
35693;SDS011;21812;55.536;37.664;2023-04-03T07:18:56;17.33;;;11.32;;
35693;SDS011;21812;55.536;37.664;2023-04-03T07:21:22;26.15;;;11.85;;
35693;SDS011;21812;55.536;37.664;2023-04-03T07:23:49;19.27;;;11.93;;
35693;SDS011;21812;55.536;37.664;2023-04-03T07:26:15;24.17;;;12.52;;
35693;SDS011;21812;55.536;37.664;2023-04-03T07:28:40;28.95;;;13.13;;
35693;SDS011;21812;55.536;37.664;2023-04-03T07:31:08;25.35;;;13.38;;
35693;SDS011;21812;55.536;37.664;2023-04-03T07:33:38;24.88;;;13.80;;
35693;SDS011;21812;55.536;37.664;2023-04-03T07:36:05;30.88;;;13.25;;
35693;SDS011;21812;55.536;37.664;2023-04-03T07:38:32;23.60;;;12.68;;
35693;SDS011;21812;55.536;37.664;2023-04-03T07:40:59;27.13;;;14.02;;
35693;SDS011;21812;55.536;37.664;2023-04-03T07:43:24;49.55;;;14.55;;
35693;SDS011;21812;55.536;37.664;2023-04-03T07:45:51;21.92;;;13.68;;
35693;SDS011;21812;55.536;37.664;2023-04-03T07:48:20;22.08;;;12.85;;
35693;SDS011;21812;55.536;37.664;2023-04-03T07:50:47;28.38;;;12.98;;
35693;SDS011;21812;55.536;37.664;2023-04-03T07:53:13;33.08;;;13.38;;
35693;SDS011;21812;55.536;37.664;2023-04-03T07:55:40;31.88;;;14.00;;
35693;SDS011;21812;55.536;37.664;2023-04-03T07:58:17;33.53;;;13.23;;
35693;SDS011;21812;55.536;37.664;2023-04-03T08:00:43;18.52;;;11.50;;
35693;SDS011;21812;55.536;37.664;2023-04-03T08:03:10;24.58;;;12.40;;
35693;SDS011;21812;55.536;37.664;2023-04-03T08:05:37;29.45;;;12.93;;
35693;SDS011;21812;55.536;37.664;2023-04-03T08:08:03;23.52;;;12.43;;
35693;SDS011;21812;55.536;37.664;2023-04-03T08:10:30;26.60;;;12.90;;
35693;SDS011;21812;55.536;37.664;2023-04-03T08:12:56;23.10;;;12.52;;
35693;SDS011;21812;55.536;37.664;2023-04-03T08:15:21;27.05;;;12.30;;
35693;SDS011;21812;55.536;37.664;2023-04-03T08:17:47;20.98;;;12.10;;
35693;SDS011;21812;55.536;37.664;2023-04-03T08:20:13;26.13;;;11.85;;
35693;SDS011;21812;55.536;37.664;2023-04-03T08:22:39;27.83;;;12.45;;
35693;SDS011;21812;55.536;37.664;2023-04-03T08:25:05;21.20;;;11.77;;
35693;SDS011;21812;55.536;37.664;2023-04-03T08:27:31;18.08;;;9.80;;
35693;SDS011;21812;55.536;37.664;2023-04-03T08:29:57;21.77;;;10.63;;
35693;SDS011;21812;55.536;37.664;2023-04-03T08:32:23;16.48;;;9.23;;
35693;SDS011;21812;55.536;37.664;2023-04-03T08:34:49;23.15;;;10.20;;
35693;SDS011;21812;55.536;37.664;2023-04-03T08:37:15;16.63;;;10.02;;
35693;SDS011;21812;55.536;37.664;2023-04-03T08:39:41;19.90;;;10.18;;
35693;SDS011;21812;55.536;37.664;2023-04-03T08:42:14;16.48;;;9.25;;
35693;SDS011;21812;55.536;37.664;2023-04-03T08:44:55;16.63;;;9.97;;
35693;SDS011;21812;55.536;37.664;2023-04-03T08:50:07;17.45;;;10.43;;
35693;SDS011;21812;55.536;37.664;2023-04-03T08:52:47;17.65;;;9.73;;
35693;SDS011;21812;55.536;37.664;2023-04-03T08:55:30;20.17;;;10.73;;
35693;SDS011;21812;55.536;37.664;2023-04-03T08:58:05;18.77;;;9.90;;
35693;SDS011;21812;55.536;37.664;2023-04-03T09:03:14;23.58;;;10.15;;
35693;SDS011;21812;55.536;37.664;2023-04-03T09:10:59;16.55;;;10.48;;
35693;SDS011;21812;55.536;37.664;2023-04-03T09:19:11;27.05;;;13.50;;
35693;SDS011;21812;55.536;37.664;2023-04-03T09:21:38;19.90;;;11.68;;
35693;SDS011;21812;55.536;37.664;2023-04-03T09:24:09;18.58;;;11.57;;
35693;SDS011;21812;55.536;37.664;2023-04-03T09:26:42;23.50;;;11.52;;
35693;SDS011;21812;55.536;37.664;2023-04-03T09:29:18;19.83;;;10.77;;
35693;SDS011;21812;55.536;37.664;2023-04-03T09:31:47;16.20;;;10.48;;
35693;SDS011;21812;55.536;37.664;2023-04-03T09:34:31;17.25;;;9.55;;
35693;SDS011;21812;55.536;37.664;2023-04-03T09:37:01;14.07;;;8.10;;
35693;SDS011;21812;55.536;37.664;2023-04-03T09:39:31;15.18;;;9.00;;
35693;SDS011;21812;55.536;37.664;2023-04-03T09:42:20;15.50;;;9.38;;
35693;SDS011;21812;55.536;37.664;2023-04-03T09:44:53;16.77;;;9.75;;
35693;SDS011;21812;55.536;37.664;2023-04-03T09:47:35;12.77;;;8.18;;
35693;SDS011;21812;55.536;37.664;2023-04-03T09:50:18;13.02;;;8.65;;
35693;SDS011;21812;55.536;37.664;2023-04-03T09:52:50;16.95;;;9.70;;
35693;SDS011;21812;55.536;37.664;2023-04-03T09:55:22;32.15;;;12.70;;
35693;SDS011;21812;55.536;37.664;2023-04-03T09:57:55;21.40;;;12.23;;
35693;SDS011;21812;55.536;37.664;2023-04-03T10:00:36;16.65;;;9.10;;
35693;SDS011;21812;55.536;37.664;2023-04-03T10:03:04;21.05;;;10.65;;
35693;SDS011;21812;55.536;37.664;2023-04-03T10:05:48;38.28;;;18.10;;
35693;SDS011;21812;55.536;37.664;2023-04-03T10:10:42;25.00;;;11.70;;
35693;SDS011;21812;55.536;37.664;2023-04-03T10:13:14;21.98;;;10.63;;
35693;SDS011;21812;55.536;37.664;2023-04-03T10:15:43;23.98;;;11.32;;
35693;SDS011;21812;55.536;37.664;2023-04-03T10:20:59;23.45;;;9.73;;
35693;SDS011;21812;55.536;37.664;2023-04-03T10:23:49;21.92;;;10.75;;
35693;SDS011;21812;55.536;37.664;2023-04-03T10:46:02;26.55;;;9.85;;
35693;SDS011;21812;55.536;37.664;2023-04-03T10:48:50;24.88;;;10.40;;
35693;SDS011;21812;55.536;37.664;2023-04-03T10:51:24;23.88;;;9.85;;
35693;SDS011;21812;55.536;37.664;2023-04-03T10:54:08;20.10;;;10.63;;
35693;SDS011;21812;55.536;37.664;2023-04-03T10:57:00;19.50;;;9.55;;
35693;SDS011;21812;55.536;37.664;2023-04-03T10:59:32;25.40;;;10.60;;
35693;SDS011;21812;55.536;37.664;2023-04-03T11:04:30;30.90;;;10.70;;
35693;SDS011;21812;55.536;37.664;2023-04-03T11:07:03;18.23;;;8.88;;
35693;SDS011;21812;55.536;37.664;2023-04-03T11:09:35;18.75;;;7.60;;
35693;SDS011;21812;55.536;37.664;2023-04-03T11:12:09;13.07;;;7.07;;
35693;SDS011;21812;55.536;37.664;2023-04-03T11:14:50;10.52;;;7.72;;
35693;SDS011;21812;55.536;37.664;2023-04-03T11:17:22;11.48;;;6.18;;
35693;SDS011;21812;55.536;37.664;2023-04-03T11:20:14;10.15;;;6.25;;
35693;SDS011;21812;55.536;37.664;2023-04-03T11:22:47;9.25;;;5.75;;
35693;SDS011;21812;55.536;37.664;2023-04-03T11:25:20;10.32;;;5.72;;
35693;SDS011;21812;55.536;37.664;2023-04-03T11:27:56;10.48;;;5.60;;
35693;SDS011;21812;55.536;37.664;2023-04-03T11:35:43;6.35;;;5.25;;
35693;SDS011;21812;55.536;37.664;2023-04-03T11:38:14;8.55;;;5.20;;
35693;SDS011;21812;55.536;37.664;2023-04-03T11:40:47;8.68;;;6.18;;
35693;SDS011;21812;55.536;37.664;2023-04-03T11:43:21;11.07;;;5.30;;
35693;SDS011;21812;55.536;37.664;2023-04-03T11:45:50;8.88;;;5.68;;
35693;SDS011;21812;55.536;37.664;2023-04-03T11:53:38;18.95;;;5.70;;
35693;SDS011;21812;55.536;37.664;2023-04-03T12:01:51;7.93;;;3.88;;
35693;SDS011;21812;55.536;37.664;2023-04-03T12:04:20;6.38;;;4.53;;
35693;SDS011;21812;55.536;37.664;2023-04-03T12:06:50;7.25;;;4.32;;
35693;SDS011;21812;55.536;37.664;2023-04-03T12:11:53;10.50;;;4.45;;
35693;SDS011;21812;55.536;37.664;2023-04-03T12:14:22;9.93;;;4.78;;
35693;SDS011;21812;55.536;37.664;2023-04-03T12:16:50;12.27;;;4.93;;
35693;SDS011;21812;55.536;37.664;2023-04-03T12:19:35;6.03;;;4.32;;
35693;SDS011;21812;55.536;37.664;2023-04-03T12:24:32;7.97;;;5.00;;
35693;SDS011;21812;55.536;37.664;2023-04-03T12:37:13;10.63;;;5.22;;
35693;SDS011;21812;55.536;37.664;2023-04-03T12:45:44;20.15;;;5.57;;
35693;SDS011;21812;55.536;37.664;2023-04-03T12:48:16;8.15;;;5.05;;
35693;SDS011;21812;55.536;37.664;2023-04-03T12:50:47;13.60;;;7.50;;
35693;SDS011;21812;55.536;37.664;2023-04-03T12:53:47;15.82;;;6.90;;
35693;SDS011;21812;55.536;37.664;2023-04-03T12:56:25;11.27;;;5.27;;
35693;SDS011;21812;55.536;37.664;2023-04-03T12:58:53;10.90;;;5.20;;
35693;SDS011;21812;55.536;37.664;2023-04-03T13:01:21;12.43;;;5.18;;
35693;SDS011;21812;55.536;37.664;2023-04-03T13:03:53;12.40;;;5.38;;
35693;SDS011;21812;55.536;37.664;2023-04-03T13:06:27;10.82;;;5.50;;
35693;SDS011;21812;55.536;37.664;2023-04-03T13:08:58;9.45;;;5.43;;
35693;SDS011;21812;55.536;37.664;2023-04-03T13:11:27;17.50;;;6.70;;
35693;SDS011;21812;55.536;37.664;2023-04-03T13:13:59;17.13;;;5.82;;
35693;SDS011;21812;55.536;37.664;2023-04-03T13:16:28;13.60;;;6.20;;
35693;SDS011;21812;55.536;37.664;2023-04-03T13:18:54;9.88;;;5.03;;
35693;SDS011;21812;55.536;37.664;2023-04-03T13:21:22;8.88;;;5.43;;
35693;SDS011;21812;55.536;37.664;2023-04-03T13:23:52;11.70;;;6.10;;
35693;SDS011;21812;55.536;37.664;2023-04-03T13:26:22;17.13;;;6.55;;
35693;SDS011;21812;55.536;37.664;2023-04-03T13:28:49;16.73;;;6.28;;
35693;SDS011;21812;55.536;37.664;2023-04-03T13:33:55;10.30;;;5.82;;
35693;SDS011;21812;55.536;37.664;2023-04-03T13:36:29;9.20;;;5.50;;
35693;SDS011;21812;55.536;37.664;2023-04-03T13:38:57;11.63;;;5.40;;
35693;SDS011;21812;55.536;37.664;2023-04-03T13:41:30;11.15;;;5.72;;
35693;SDS011;21812;55.536;37.664;2023-04-03T13:46:55;12.50;;;5.65;;
35693;SDS011;21812;55.536;37.664;2023-04-03T13:49:45;10.50;;;5.65;;
35693;SDS011;21812;55.536;37.664;2023-04-03T13:53:13;14.20;;;5.45;;
35693;SDS011;21812;55.536;37.664;2023-04-03T13:55:26;10.13;;;5.75;;
35693;SDS011;21812;55.536;37.664;2023-04-03T14:00:29;14.18;;;6.22;;
35693;SDS011;21812;55.536;37.664;2023-04-03T14:03:13;19.02;;;6.38;;
35693;SDS011;21812;55.536;37.664;2023-04-03T14:05:51;24.60;;;6.68;;
35693;SDS011;21812;55.536;37.664;2023-04-03T14:08:18;15.05;;;5.93;;
35693;SDS011;21812;55.536;37.664;2023-04-03T14:10:44;17.25;;;7.28;;
35693;SDS011;21812;55.536;37.664;2023-04-03T14:13:13;17.95;;;6.65;;
35693;SDS011;21812;55.536;37.664;2023-04-03T14:15:41;16.63;;;6.90;;
35693;SDS011;21812;55.536;37.664;2023-04-03T14:18:15;12.57;;;6.97;;
35693;SDS011;21812;55.536;37.664;2023-04-03T14:20:47;15.13;;;7.07;;
35693;SDS011;21812;55.536;37.664;2023-04-03T14:23:13;12.27;;;7.07;;
35693;SDS011;21812;55.536;37.664;2023-04-03T14:25:39;20.45;;;8.63;;
35693;SDS011;21812;55.536;37.664;2023-04-03T14:28:39;15.57;;;8.90;;
35693;SDS011;21812;55.536;37.664;2023-04-03T14:30:58;14.48;;;6.90;;
35693;SDS011;21812;55.536;37.664;2023-04-03T14:33:23;15.65;;;7.07;;
35693;SDS011;21812;55.536;37.664;2023-04-03T14:35:51;14.32;;;7.50;;
35693;SDS011;21812;55.536;37.664;2023-04-03T14:38:22;14.15;;;6.38;;
35693;SDS011;21812;55.536;37.664;2023-04-03T14:40:52;15.18;;;7.05;;
35693;SDS011;21812;55.536;37.664;2023-04-03T14:43:19;13.02;;;7.43;;
35693;SDS011;21812;55.536;37.664;2023-04-03T14:45:46;17.38;;;7.88;;
35693;SDS011;21812;55.536;37.664;2023-04-03T14:48:16;21.58;;;7.82;;
35693;SDS011;21812;55.536;37.664;2023-04-03T14:50:48;22.73;;;9.02;;
35693;SDS011;21812;55.536;37.664;2023-04-03T14:53:14;14.55;;;8.00;;
35693;SDS011;21812;55.536;37.664;2023-04-03T14:55:42;13.65;;;8.05;;
35693;SDS011;21812;55.536;37.664;2023-04-03T14:58:14;12.13;;;6.75;;
35693;SDS011;21812;55.536;37.664;2023-04-03T15:00:42;17.83;;;7.45;;
35693;SDS011;21812;55.536;37.664;2023-04-03T15:03:18;18.15;;;7.95;;
35693;SDS011;21812;55.536;37.664;2023-04-03T15:05:46;10.50;;;6.97;;
35693;SDS011;21812;55.536;37.664;2023-04-03T15:08:17;15.07;;;8.10;;
35693;SDS011;21812;55.536;37.664;2023-04-03T15:10:46;12.93;;;7.03;;
35693;SDS011;21812;55.536;37.664;2023-04-03T15:13:12;10.70;;;6.22;;
35693;SDS011;21812;55.536;37.664;2023-04-03T15:15:39;15.02;;;7.57;;
35693;SDS011;21812;55.536;37.664;2023-04-03T15:18:04;11.85;;;7.55;;
35693;SDS011;21812;55.536;37.664;2023-04-03T15:20:31;9.65;;;5.82;;
35693;SDS011;21812;55.536;37.664;2023-04-03T15:22:58;14.73;;;6.43;;
35693;SDS011;21812;55.536;37.664;2023-04-03T15:25:28;14.52;;;7.05;;
35693;SDS011;21812;55.536;37.664;2023-04-03T15:27:55;11.82;;;6.93;;
35693;SDS011;21812;55.536;37.664;2023-04-03T15:30:21;13.10;;;6.82;;
35693;SDS011;21812;55.536;37.664;2023-04-03T15:32:47;16.52;;;7.55;;
35693;SDS011;21812;55.536;37.664;2023-04-03T15:35:14;17.65;;;7.22;;
35693;SDS011;21812;55.536;37.664;2023-04-03T15:37:40;12.55;;;6.38;;
35693;SDS011;21812;55.536;37.664;2023-04-03T15:40:06;18.40;;;5.97;;
35693;SDS011;21812;55.536;37.664;2023-04-03T15:42:32;29.58;;;8.40;;
35693;SDS011;21812;55.536;37.664;2023-04-03T15:44:58;18.05;;;7.25;;
35693;SDS011;21812;55.536;37.664;2023-04-03T15:47:24;18.33;;;7.18;;
35693;SDS011;21812;55.536;37.664;2023-04-03T15:49:51;15.77;;;7.05;;
35693;SDS011;21812;55.536;37.664;2023-04-03T15:52:19;15.27;;;7.13;;
35693;SDS011;21812;55.536;37.664;2023-04-03T15:54:45;12.80;;;8.00;;
35693;SDS011;21812;55.536;37.664;2023-04-03T15:57:10;20.48;;;8.10;;
35693;SDS011;21812;55.536;37.664;2023-04-03T15:59:36;16.00;;;8.68;;
35693;SDS011;21812;55.536;37.664;2023-04-03T16:02:02;16.05;;;9.18;;
35693;SDS011;21812;55.536;37.664;2023-04-03T16:04:30;22.63;;;8.18;;